Time;durP1;ratioP1;P1;durP2;ratioP2;P2;SDS_P1;SDS_P2;PMS_P1;PMS_P2;Temp;Humidity;BMP_temperature;BMP_pressure;BME280_temperature;BME280_humidity;BME280_pressure;Samples;Min_cycle;Max_cycle;Signal;HPM_P1;HPM_P2
2021/03/18 00:00:11;;;;;;;11.63;3.38;;;;;;;5.85;68.51;102325.38;341283;29;1050;-66
2021/03/18 00:00:23;;;;;;;10.75;3.35;;;;;;;5.88;68.16;102333.22;338835;29;71404;-64
2021/03/18 00:00:50;;;;;;;13.48;3.47;;;;;;;5.88;68.29;102330.59;341176;29;2654;-64
2021/03/18 00:01:04;;;;;;;14.55;3.60;;;;;;;5.92;68.24;102329.72;338745;29;71675;-64
2021/03/18 00:01:17;;;;;;;15.95;3.60;;;;;;;5.97;68.82;102336.69;339461;29;48511;-64
2021/03/18 00:01:30;;;;;;;15.80;3.72;;;;;;;5.95;68.45;102334.09;340437;29;23512;-64
2021/03/18 00:01:44;;;;;;;14.38;3.70;;;;;;;5.93;68.89;102331.47;339951;29;2033;-64
2021/03/18 00:01:55;;;;;;;14.88;3.50;;;;;;;5.91;68.31;102333.19;339092;29;23811;-64
2021/03/18 00:02:07;;;;;;;14.88;3.53;;;;;;;5.86;68.26;102327.09;339814;29;1174;-64
2021/03/18 00:02:18;;;;;;;16.15;3.70;;;;;;;5.85;68.55;102327.97;339867;29;1366;-65
2021/03/18 00:02:29;;;;;;;15.30;3.67;;;;;;;5.88;68.68;102330.59;339959;29;1419;-64
2021/03/18 00:02:40;;;;;;;16.55;3.55;;;;;;;5.89;68.75;102327.09;339874;29;1052;-64
2021/03/18 00:02:52;;;;;;;16.13;3.63;;;;;;;5.90;69.06;102334.06;339847;29;1158;-64
2021/03/18 00:03:04;;;;;;;16.98;3.80;;;;;;;5.92;69.35;102334.97;339803;29;1147;-65
2021/03/18 00:03:17;;;;;;;13.88;3.42;;;;;;;5.97;69.44;102334.06;339848;29;1094;-64
2021/03/18 00:03:32;;;;;;;14.52;3.30;;;;;;;5.91;68.96;102334.97;338612;29;1273;-65
2021/03/18 00:03:45;;;;;;;15.70;3.60;;;;;;;5.89;67.81;102327.09;337101;29;48034;-64
2021/03/18 00:03:57;;;;;;;14.30;3.53;;;;;;;5.85;68.07;102329.72;338533;29;1226;-64
2021/03/18 00:04:10;;;;;;;14.27;3.45;;;;;;;5.89;68.49;102329.72;338547;29;1204;-66
2021/03/18 00:04:22;;;;;;;14.14;3.48;;;;;;;5.89;68.65;102324.47;338658;29;1210;-65
2021/03/18 00:04:33;;;;;;;14.40;3.40;;;;;;;5.91;69.28;102330.56;338547;29;1916;-64
2021/03/18 00:04:44;;;;;;;13.90;3.53;;;;;;;5.86;68.52;102328.84;338671;29;1075;-64
2021/03/18 00:04:55;;;;;;;16.10;3.70;;;;;;;5.88;69.00;102329.69;338540;29;1214;-65
2021/03/18 00:05:08;;;;;;;16.38;3.58;;;;;;;5.92;69.13;102332.34;338601;29;1185;-65
2021/03/18 00:05:20;;;;;;;16.10;3.53;;;;;;;5.90;68.50;102323.56;337759;29;24175;-65
2021/03/18 00:05:31;;;;;;;14.70;3.40;;;;;;;5.87;68.01;102334.09;338650;29;1051;-65
2021/03/18 00:05:43;;;;;;;13.38;3.40;;;;;;;5.87;68.22;102330.59;339602;29;1186;-65
2021/03/18 00:05:55;;;;;;;14.02;3.50;;;;;;;5.87;67.92;102330.59;340549;29;1096;-64
2021/03/18 00:06:06;;;;;;;15.57;3.67;;;;;;;5.92;68.54;102329.72;341179;29;1344;-65
2021/03/18 00:06:18;;;;;;;15.55;3.72;;;;;;;5.94;68.99;102329.69;341252;29;1098;-65
2021/03/18 00:06:29;;;;;;;12.98;3.60;;;;;;;5.92;68.99;102327.09;339920;29;1153;-64
2021/03/18 00:06:40;;;;;;;12.23;3.60;;;;;;;5.96;68.96;102330.56;339921;29;1189;-64
2021/03/18 00:06:52;;;;;;;13.02;3.60;;;;;;;5.96;68.71;102327.94;339796;29;1007;-64
2021/03/18 00:07:03;;;;;;;13.45;3.50;;;;;;;5.99;68.67;102337.59;339723;29;1230;-65
2021/03/18 00:07:14;;;;;;;14.35;3.50;;;;;;;5.98;68.83;102331.47;339740;29;1367;-64
2021/03/18 00:07:25;;;;;;;13.40;3.50;;;;;;;6.00;69.10;102339.34;339618;29;1098;-65
2021/03/18 00:07:36;;;;;;;12.95;3.63;;;;;;;6.02;69.58;102334.97;339848;29;1221;-65
2021/03/18 00:07:47;;;;;;;11.98;3.58;;;;;;;6.07;69.27;102330.56;338517;29;1084;-64
2021/03/18 00:08:01;;;;;;;15.02;3.80;;;;;;;5.95;67.80;102328.84;338586;29;1080;-64
2021/03/18 00:08:13;;;;;;;17.20;3.95;;;;;;;5.90;67.88;102338.47;337848;29;22997;-64
2021/03/18 00:08:25;;;;;;;15.75;3.70;;;;;;;5.90;68.09;102331.44;339048;29;1222;-64
2021/03/18 00:08:38;;;;;;;14.70;3.60;;;;;;;5.89;67.78;102329.72;339782;29;1075;-65
2021/03/18 00:08:50;;;;;;;14.55;3.70;;;;;;;5.94;68.71;102334.94;341066;28;1289;-65
2021/03/18 00:09:05;;;;;;;16.05;3.78;;;;;;;5.95;68.71;102334.09;342585;28;1127;-64
2021/03/18 00:09:18;;;;;;;15.35;3.90;;;;;;;5.97;68.36;102336.69;339169;29;25484;-65
2021/03/18 00:09:30;;;;;;;12.57;3.50;;;;;;;5.95;68.16;102332.31;340524;29;23731;-65
2021/03/18 00:09:41;;;;;;;14.23;3.60;;;;;;;5.93;68.05;102328.84;341463;28;1146;-65
2021/03/18 00:09:53;;;;;;;13.63;3.50;;;;;;;5.93;67.75;102341.97;342608;28;1118;-64
2021/03/18 00:10:05;;;;;;;15.25;3.80;;;;;;;5.90;67.70;102338.47;342615;28;2148;-65
2021/03/18 00:10:17;;;;;;;15.30;3.60;;;;;;;5.90;68.86;102336.69;341326;29;1169;-65
2021/03/18 00:10:28;;;;;;;14.27;3.58;;;;;;;5.90;68.80;102341.06;341324;29;1173;-64
2021/03/18 00:10:40;;;;;;;15.02;3.53;;;;;;;5.91;68.44;102338.44;341257;29;1090;-65
2021/03/18 00:10:52;;;;;;;15.60;3.53;;;;;;;5.89;68.33;102341.94;341308;29;1190;-65
2021/03/18 00:11:09;;;;;;;15.38;3.80;;;;;;;5.88;68.52;102340.19;341212;29;1083;-64
2021/03/18 00:11:22;;;;;;;14.70;3.90;;;;;;;5.91;68.06;102335.81;338914;29;71621;-64
2021/03/18 00:11:34;;;;;;;15.98;3.70;;;;;;;5.91;68.57;102341.06;341246;29;1193;-65
2021/03/18 00:11:47;;;;;;;15.82;3.67;;;;;;;5.94;68.33;102340.19;341277;29;1127;-64
2021/03/18 00:11:59;;;;;;;14.57;3.60;;;;;;;5.94;68.37;102338.44;340429;29;24183;-65
2021/03/18 00:12:10;;;;;;;14.57;3.80;;;;;;;5.98;68.49;102341.09;341507;28;1133;-64
2021/03/18 00:12:21;;;;;;;15.90;4.25;;;;;;;5.98;69.01;102338.47;342591;28;1138;-65
2021/03/18 00:12:33;;;;;;;13.65;3.95;;;;;;;6.01;69.09;102338.47;342593;28;1129;-65
2021/03/18 00:12:45;;;;;;;12.85;3.55;;;;;;;5.99;68.64;102342.81;341289;29;1213;-66
2021/03/18 00:12:56;;;;;;;15.07;3.30;;;;;;;6.02;68.82;102340.22;341294;29;2048;-65
2021/03/18 00:13:09;;;;;;;15.25;3.40;;;;;;;6.04;68.48;102339.31;341382;29;921;-64
2021/03/18 00:13:24;;;;;;;14.27;3.38;;;;;;;6.03;68.02;102349.81;342173;28;1322;-64
2021/03/18 00:13:37;;;;;;;13.82;3.60;;;;;;;6.02;68.34;102337.59;340201;28;71083;-65
2021/03/18 00:13:49;;;;;;;14.23;3.55;;;;;;;6.01;68.64;102334.09;342624;28;1361;-64
2021/03/18 00:14:00;;;;;;;13.30;3.60;;;;;;;5.95;68.04;102342.81;342643;28;1051;-65
2021/03/18 00:14:12;;;;;;;12.98;3.67;;;;;;;5.96;67.80;102346.28;342563;28;1212;-65
2021/03/18 00:14:24;;;;;;;12.20;3.63;;;;;;;5.97;68.01;102340.19;342557;28;1220;-63
2021/03/18 00:14:36;;;;;;;11.42;3.42;;;;;;;5.98;68.98;102341.09;342592;28;2006;-65
2021/03/18 00:14:47;;;;;;;11.15;3.35;;;;;;;5.97;68.26;102334.06;342762;28;1086;-66
2021/03/18 00:15:01;;;;;;;9.88;3.10;;;;;;;5.91;67.56;102340.22;342729;28;1078;-64
2021/03/18 00:15:14;;;;;;;10.68;3.30;;;;;;;5.93;68.08;102336.72;341804;28;24163;-64
2021/03/18 00:15:25;;;;;;;11.40;3.28;;;;;;;5.96;68.27;102343.66;342694;28;1081;-65
2021/03/18 00:15:38;;;;;;;12.85;3.22;;;;;;;6.00;69.16;102339.34;342798;28;1161;-64
2021/03/18 00:15:50;;;;;;;13.30;3.30;;;;;;;5.97;68.34;102340.19;342777;28;1115;-64
2021/03/18 00:16:02;;;;;;;15.63;4.15;;;;;;;5.95;68.18;102341.94;342580;28;1219;-64
2021/03/18 00:16:17;;;;;;;15.00;4.32;;;;;;;5.96;68.21;102335.81;342657;28;1082;-64
2021/03/18 00:16:28;;;;;;;15.77;4.13;;;;;;;5.96;68.61;102335.81;341193;28;47893;-65
2021/03/18 00:16:40;;;;;;;16.05;3.75;;;;;;;5.94;68.75;102335.81;342772;28;1070;-65
2021/03/18 00:16:51;;;;;;;16.10;3.55;;;;;;;5.99;68.64;102340.22;342756;28;1090;-65
2021/03/18 00:17:03;;;;;;;15.65;3.80;;;;;;;6.00;68.51;102340.19;342628;28;1122;-65
2021/03/18 00:17:14;;;;;;;15.85;4.10;;;;;;;6.01;68.54;102338.47;342670;28;1096;-65
2021/03/18 00:17:25;;;;;;;17.73;4.15;;;;;;;5.93;67.78;102341.97;342703;28;1110;-65
2021/03/18 00:17:37;;;;;;;17.30;3.80;;;;;;;6.00;68.78;102344.59;342728;28;1091;-64
2021/03/18 00:17:49;;;;;;;15.93;3.70;;;;;;;6.02;69.05;102343.72;342635;28;1043;-65
2021/03/18 00:18:01;;;;;;;13.93;3.50;;;;;;;5.98;68.03;102335.84;342664;28;1263;-65
2021/03/18 00:18:18;;;;;;;13.20;3.47;;;;;;;6.00;68.60;102344.59;343890;28;1587;-64
2021/03/18 00:18:33;;;;;;;16.30;3.78;;;;;;;6.04;69.65;102336.69;341606;28;71467;-64
2021/03/18 00:18:48;;;;;;;17.33;3.67;;;;;;;6.04;68.95;102336.69;341589;28;71983;-65
2021/03/18 00:18:59;;;;;;;14.57;3.60;;;;;;;6.06;69.36;102345.44;342253;28;49120;-65
2021/03/18 00:19:11;;;;;;;15.50;3.82;;;;;;;6.07;68.99;102341.06;343970;28;1201;-64
2021/03/18 00:19:22;;;;;;;15.27;3.80;;;;;;;6.05;68.77;102343.69;343979;28;1129;-66
2021/03/18 00:19:33;;;;;;;15.35;3.70;;;;;;;6.05;68.63;102341.06;343967;28;1224;-65
2021/03/18 00:19:44;;;;;;;13.00;3.38;;;;;;;5.98;68.16;102335.84;343970;28;1066;-65
2021/03/18 00:19:55;;;;;;;14.38;3.47;;;;;;;5.95;67.38;102337.56;343842;28;1207;-66
2021/03/18 00:20:12;;;;;;;14.45;3.28;;;;;;;5.96;68.57;102338.44;343641;28;1074;-64
2021/03/18 00:20:23;;;;;;;15.48;3.38;;;;;;;5.90;67.97;102331.44;340230;28;71910;-65
2021/03/18 00:20:34;;;;;;;14.18;3.47;;;;;;;5.86;68.15;102340.19;342558;28;1130;-64
2021/03/18 00:20:46;;;;;;;13.68;3.22;;;;;;;5.88;67.50;102345.44;342593;28;1129;-64
2021/03/18 00:21:00;;;;;;;13.32;3.20;;;;;;;5.91;67.64;102338.44;342609;28;1074;-64
2021/03/18 00:21:12;;;;;;;14.32;3.40;;;;;;;5.92;68.54;102340.19;340425;29;24515;-65
2021/03/18 00:21:23;;;;;;;16.58;3.63;;;;;;;5.95;67.71;102334.09;342492;28;1097;-65
2021/03/18 00:21:35;;;;;;;15.18;3.75;;;;;;;5.97;68.64;102342.81;342600;28;1158;-64
2021/03/18 00:21:46;;;;;;;15.50;3.70;;;;;;;5.97;68.07;102349.81;342509;28;1054;-64
2021/03/18 00:21:58;;;;;;;15.48;3.50;;;;;;;5.95;68.26;102342.81;342625;28;1192;-64
2021/03/18 00:22:09;;;;;;;13.70;3.30;;;;;;;5.93;67.96;102339.34;342663;28;1302;-65
2021/03/18 00:22:22;;;;;;;13.35;3.40;;;;;;;5.93;67.50;102339.34;342588;28;1087;-64
2021/03/18 00:22:35;;;;;;;12.30;3.58;;;;;;;5.90;68.07;102333.22;342594;28;1217;-66
2021/03/18 00:22:46;;;;;;;12.23;3.60;;;;;;;5.91;68.42;102345.44;342526;28;1173;-65
2021/03/18 00:22:58;;;;;;;13.10;3.40;;;;;;;5.95;68.60;102340.19;342668;28;1082;-65
2021/03/18 00:23:10;;;;;;;13.82;3.33;;;;;;;5.93;68.44;102339.34;342646;28;1165;-65
2021/03/18 00:23:21;;;;;;;14.95;3.40;;;;;;;5.88;68.33;102335.84;342566;28;1123;-66
2021/03/18 00:23:32;;;;;;;15.15;3.53;;;;;;;5.82;67.58;102342.84;342530;28;1212;-66
2021/03/18 00:23:44;;;;;;;12.90;3.40;;;;;;;5.76;67.88;102341.97;342577;28;1364;-65
2021/03/18 00:23:55;;;;;;;12.00;3.25;;;;;;;5.72;67.41;102342.84;342702;28;1149;-65
2021/03/18 00:24:07;;;;;;;10.84;2.94;;;;;;;5.66;67.12;102341.97;342740;28;1114;-65
2021/03/18 00:24:19;;;;;;;13.45;2.78;;;;;;;5.63;66.94;102349.84;342689;28;1164;-66
2021/03/18 00:24:30;;;;;;;13.65;2.83;;;;;;;5.68;67.95;102342.88;342722;28;1071;-63
2021/03/18 00:24:41;;;;;;;14.50;3.25;;;;;;;5.65;67.22;102333.25;342509;28;1131;-65
2021/03/18 00:24:52;;;;;;;14.30;3.42;;;;;;;5.66;67.58;102341.97;342532;28;1912;-65
2021/03/18 00:25:05;;;;;;;14.38;3.60;;;;;;;5.69;67.64;102344.63;342624;28;1107;-65
2021/03/18 00:25:17;;;;;;;13.35;3.45;;;;;;;5.68;67.37;102340.25;342534;28;2148;-66
2021/03/18 00:25:28;;;;;;;12.60;3.40;;;;;;;5.68;67.37;102342.88;342522;28;1218;-65
2021/03/18 00:25:40;;;;;;;13.40;3.45;;;;;;;5.67;67.96;102343.72;342596;28;1156;-65
2021/03/18 00:25:51;;;;;;;16.90;3.63;;;;;;;5.72;68.61;102341.97;342608;28;1043;-65
2021/03/18 00:26:03;;;;;;;14.88;3.50;;;;;;;5.70;67.66;102346.34;342594;28;1131;-66
2021/03/18 00:26:15;;;;;;;13.25;3.58;;;;;;;5.72;68.38;102339.38;342602;28;1237;-65
2021/03/18 00:26:29;;;;;;;15.65;3.65;;;;;;;5.71;67.51;102342.84;342403;28;1078;-65
2021/03/18 00:26:40;;;;;;;17.80;4.07;;;;;;;5.71;68.18;102335.84;342699;28;1307;-65
2021/03/18 00:26:51;;;;;;;21.80;4.22;;;;;;;5.72;68.17;102344.59;342659;28;1066;-64
2021/03/18 00:27:02;;;;;;;20.15;3.90;;;;;;;5.70;67.95;102341.09;342710;28;1070;-66
2021/03/18 00:27:13;;;;;;;20.13;3.88;;;;;;;5.76;68.16;102341.97;342788;28;1026;-66
2021/03/18 00:27:25;;;;;;;16.80;3.80;;;;;;;5.82;68.93;102346.31;342461;28;1158;-65
2021/03/18 00:27:36;;;;;;;17.98;3.90;;;;;;;5.82;68.92;102335.84;342719;28;1097;-66
2021/03/18 00:27:47;;;;;;;18.58;3.92;;;;;;;5.86;68.78;102342.81;344008;28;1144;-66
2021/03/18 00:27:59;;;;;;;17.02;3.70;;;;;;;5.88;69.30;102346.31;343933;28;1240;-66
2021/03/18 00:28:11;;;;;;;15.13;3.78;;;;;;;5.87;68.59;102344.56;343928;28;1229;-65
2021/03/18 00:28:22;;;;;;;17.35;3.95;;;;;;;5.86;67.96;102342.81;343836;28;1757;-65
2021/03/18 00:28:34;;;;;;;19.45;4.07;;;;;;;5.90;68.23;102343.69;343906;28;1320;-64
2021/03/18 00:28:46;;;;;;;17.88;3.75;;;;;;;5.93;68.71;102339.34;343957;28;1074;-66
2021/03/18 00:28:58;;;;;;;14.05;3.70;;;;;;;5.99;69.26;102337.59;343963;28;1074;-65
2021/03/18 00:29:09;;;;;;;13.82;3.92;;;;;;;6.00;69.37;102331.47;343887;28;1130;-66
2021/03/18 00:29:38;;;;;;;14.52;3.58;;;;;;;5.96;68.37;102333.19;341512;28;68605;-66
2021/03/18 00:29:49;;;;;;;13.95;3.50;;;;;;;5.97;68.32;102336.69;342758;28;1071;-65
2021/03/18 00:30:01;;;;;;;12.50;3.30;;;;;;;5.98;67.66;102333.25;342703;28;1118;-65
2021/03/18 00:30:14;;;;;;;12.57;3.40;;;;;;;6.00;69.12;102334.09;342686;28;1022;-66
2021/03/18 00:30:27;;;;;;;12.25;3.60;;;;;;;5.97;68.38;102326.19;341898;28;24424;-65
2021/03/18 00:30:38;;;;;;;14.13;4.13;;;;;;;5.98;68.95;102328.00;342735;28;1210;-65
2021/03/18 00:30:49;;;;;;;16.52;4.22;;;;;;;5.95;68.10;102332.31;342673;28;1099;-66
2021/03/18 00:31:02;;;;;;;16.08;3.83;;;;;;;5.97;68.61;102329.69;342567;28;1075;-66
2021/03/18 00:31:13;;;;;;;15.73;3.35;;;;;;;5.98;69.44;102318.38;342665;28;1127;-65
2021/03/18 00:31:31;;;;;;;14.85;3.20;;;;;;;5.88;67.78;102317.47;342616;28;1095;-66
2021/03/18 00:31:43;;;;;;;17.20;3.30;;;;;;;5.82;67.50;102314.00;340345;28;71722;-65
2021/03/18 00:31:54;;;;;;;16.33;3.50;;;;;;;5.68;67.54;102320.13;342712;28;1058;-65
2021/03/18 00:32:07;;;;;;;14.40;3.70;;;;;;;5.70;67.05;102320.13;342656;28;1075;-65
2021/03/18 00:32:19;;;;;;;14.48;3.75;;;;;;;5.66;67.02;102326.25;342767;28;1150;-65
2021/03/18 00:32:30;;;;;;;15.70;3.70;;;;;;;5.73;68.19;102321.00;342602;28;1174;-65
2021/03/18 00:32:42;;;;;;;16.92;4.03;;;;;;;5.76;68.55;102312.25;342701;28;1152;-65
2021/03/18 00:32:54;;;;;;;14.82;3.90;;;;;;;5.82;68.35;102322.72;342534;28;1082;-66
2021/03/18 00:33:05;;;;;;;13.50;3.78;;;;;;;5.85;68.99;102322.75;342652;28;1095;-65
2021/03/18 00:33:16;;;;;;;13.45;3.47;;;;;;;5.84;69.08;102312.22;342656;28;1093;-65
2021/03/18 00:33:28;;;;;;;12.90;3.33;;;;;;;5.82;68.73;102311.38;342610;28;1114;-64
2021/03/18 00:33:39;;;;;;;14.15;3.45;;;;;;;5.81;67.76;102315.75;342740;28;1117;-65
2021/03/18 00:33:51;;;;;;;12.50;3.28;;;;;;;5.84;68.72;102322.72;342688;28;1102;-65
2021/03/18 00:34:03;;;;;;;12.70;3.38;;;;;;;5.80;68.08;102316.63;342699;28;2045;-65
2021/03/18 00:34:14;;;;;;;14.45;3.50;;;;;;;5.82;68.21;102312.22;342709;28;1087;-65
2021/03/18 00:34:25;;;;;;;15.15;3.67;;;;;;;5.85;68.47;102319.22;342724;28;1344;-66
2021/03/18 00:34:36;;;;;;;15.48;3.78;;;;;;;5.86;69.01;102315.72;342691;28;1046;-65
2021/03/18 00:34:47;;;;;;;13.35;3.33;;;;;;;5.85;68.22;102317.50;342556;28;1118;-65
2021/03/18 00:34:59;;;;;;;15.23;3.30;;;;;;;5.87;68.92;102313.09;342731;28;1140;-65
2021/03/18 00:35:15;;;;;;;15.05;3.47;;;;;;;5.89;68.85;102315.72;342607;28;1107;-66
2021/03/18 00:35:28;;;;;;;14.65;3.20;;;;;;;5.91;68.63;102314.84;341113;28;48004;-64
2021/03/18 00:35:41;;;;;;;15.65;3.22;;;;;;;5.91;68.87;102320.09;341983;28;23430;-64
2021/03/18 00:35:53;;;;;;;15.27;3.28;;;;;;;5.93;68.23;102318.34;342684;28;1263;-66
2021/03/18 00:36:04;;;;;;;12.82;3.40;;;;;;;5.94;69.05;102308.72;342758;28;1078;-65
2021/03/18 00:36:15;;;;;;;12.00;3.50;;;;;;;5.95;68.42;102320.97;342691;28;1308;-65
2021/03/18 00:36:28;;;;;;;13.02;3.67;;;;;;;5.94;69.04;102319.22;342710;28;1062;-65
2021/03/18 00:36:41;;;;;;;14.43;3.88;;;;;;;5.94;68.53;102313.97;341771;28;24422;-66
2021/03/18 00:36:52;;;;;;;14.23;3.97;;;;;;;5.90;68.74;102320.97;342761;28;1196;-65
2021/03/18 00:37:03;;;;;;;14.90;3.67;;;;;;;5.86;67.36;102318.34;342703;28;1094;-65
2021/03/18 00:37:14;;;;;;;15.23;3.40;;;;;;;5.83;67.68;102318.38;342758;28;1054;-65
2021/03/18 00:37:26;;;;;;;16.65;3.40;;;;;;;5.83;67.96;102319.22;342682;28;1131;-65
2021/03/18 00:37:40;;;;;;;16.23;3.33;;;;;;;5.79;67.12;102312.25;342606;28;1124;-65
2021/03/18 00:37:52;;;;;;;17.52;3.42;;;;;;;5.70;67.28;102313.16;341952;28;24151;-65
2021/03/18 00:38:03;;;;;;;16.15;3.35;;;;;;;5.64;67.78;102310.53;342728;28;1445;-65
2021/03/18 00:38:14;;;;;;;16.06;3.42;;;;;;;5.70;67.28;102321.00;342680;28;1519;-65
2021/03/18 00:38:26;;;;;;;15.63;3.65;;;;;;;5.75;68.13;102315.75;342648;28;1154;-65
2021/03/18 00:38:38;;;;;;;17.52;3.80;;;;;;;5.76;68.61;102313.13;342641;28;1078;-64
2021/03/18 00:38:49;;;;;;;18.20;3.85;;;;;;;5.76;68.40;102318.38;342737;28;1073;-65
2021/03/18 00:39:07;;;;;;;20.98;3.97;;;;;;;5.78;68.54;102313.13;342737;28;1094;-65
2021/03/18 00:39:18;;;;;;;20.52;3.80;;;;;;;5.77;67.76;102314.88;340381;28;70695;-65
2021/03/18 00:39:29;;;;;;;16.38;3.47;;;;;;;5.81;67.64;102314.88;342526;28;1089;-65
2021/03/18 00:39:41;;;;;;;16.52;3.58;;;;;;;5.80;67.81;102318.34;343827;28;1166;-64
2021/03/18 00:39:56;;;;;;;16.27;3.60;;;;;;;5.77;68.06;102311.41;343984;28;1058;-65
2021/03/18 00:40:21;;;;;;;17.50;3.63;;;;;;;5.81;67.71;102313.13;342355;28;48882;-64
2021/03/18 00:40:35;;;;;;;16.45;3.70;;;;;;;5.83;67.73;102311.38;341438;28;72056;-64
2021/03/18 00:40:49;;;;;;;15.30;3.90;;;;;;;5.83;68.00;102316.59;343168;28;24698;-65
2021/03/18 00:41:05;;;;;;;16.05;3.90;;;;;;;5.86;68.88;102313.13;343081;28;24436;-65
2021/03/18 00:41:16;;;;;;;18.73;3.90;;;;;;;5.86;68.45;102313.97;341522;28;71977;-66
2021/03/18 00:41:27;;;;;;;19.42;4.00;;;;;;;5.80;68.00;102316.63;343917;28;1201;-66
2021/03/18 00:41:39;;;;;;;20.48;3.80;;;;;;;5.75;66.64;102315.75;343023;28;1093;-65
2021/03/18 00:41:50;;;;;;;18.98;3.60;;;;;;;5.73;68.08;102314.91;342604;28;1086;-64
2021/03/18 00:42:01;;;;;;;17.23;3.30;;;;;;;5.75;67.20;102307.88;343107;28;1390;-65
2021/03/18 00:42:12;;;;;;;17.50;3.45;;;;;;;5.75;67.94;102314.00;343940;28;1065;-65
2021/03/18 00:42:23;;;;;;;17.08;3.60;;;;;;;5.73;67.98;102314.91;343875;28;1058;-65
2021/03/18 00:42:45;;;;;;;17.40;3.70;;;;;;;5.77;68.48;102314.00;343935;28;1140;-64
2021/03/18 00:42:58;;;;;;;15.68;3.30;;;;;;;5.81;67.74;102310.50;341562;28;71113;-65
2021/03/18 00:43:15;;;;;;;14.75;3.50;;;;;;;5.74;67.67;102314.00;343840;28;1274;-64
2021/03/18 00:43:26;;;;;;;16.27;3.70;;;;;;;5.69;67.88;102315.78;341638;28;69831;-65
2021/03/18 00:43:39;;;;;;;18.25;3.80;;;;;;;5.64;67.76;102302.66;343945;28;2013;-64
2021/03/18 00:43:50;;;;;;;18.75;3.60;;;;;;;5.63;67.09;102310.53;344059;28;1188;-65
2021/03/18 00:44:02;;;;;;;17.48;3.28;;;;;;;5.63;68.03;102313.16;343897;28;1102;-64
2021/03/18 00:44:13;;;;;;;15.23;3.20;;;;;;;5.66;67.59;102302.66;343921;28;1130;-65
2021/03/18 00:44:24;;;;;;;12.65;3.28;;;;;;;5.67;67.81;102310.50;344071;28;1086;-65
2021/03/18 00:44:36;;;;;;;13.93;3.47;;;;;;;5.68;68.08;102307.03;344004;28;1176;-65
2021/03/18 00:44:47;;;;;;;15.23;3.45;;;;;;;5.68;68.10;102303.53;344061;28;1106;-64
2021/03/18 00:44:58;;;;;;;15.93;3.45;;;;;;;5.72;68.69;102305.28;344064;28;1128;-65
2021/03/18 00:45:10;;;;;;;15.23;3.60;;;;;;;5.75;68.66;102308.75;343882;28;1985;-64
2021/03/18 00:45:22;;;;;;;15.82;3.90;;;;;;;5.76;68.69;102313.13;344060;28;1081;-64
2021/03/18 00:45:37;;;;;;;13.98;3.72;;;;;;;5.80;69.18;102308.75;343993;28;1083;-65
2021/03/18 00:45:49;;;;;;;13.48;3.45;;;;;;;5.72;68.28;102313.13;342508;28;48930;-65
2021/03/18 00:46:00;;;;;;;15.30;3.50;;;;;;;5.70;68.19;102310.53;343950;28;1058;-64
2021/03/18 00:46:12;;;;;;;16.17;3.53;;;;;;;5.76;68.70;102309.63;343925;28;1160;-65
2021/03/18 00:46:23;;;;;;;20.70;3.92;;;;;;;5.78;67.56;102302.63;344050;28;1144;-66
2021/03/18 00:46:34;;;;;;;20.50;4.00;;;;;;;5.80;68.80;102311.38;343976;28;1124;-64
2021/03/18 00:46:45;;;;;;;17.60;3.97;;;;;;;5.81;67.85;102310.50;343971;28;1118;-65
2021/03/18 00:46:57;;;;;;;15.70;3.98;;;;;;;5.80;68.90;102303.50;343878;28;1039;-64
2021/03/18 00:47:08;;;;;;;16.20;3.83;;;;;;;5.80;67.70;102306.13;344077;28;1250;-65
2021/03/18 00:47:20;;;;;;;14.48;3.67;;;;;;;5.76;68.20;102307.88;344007;28;1103;-64
2021/03/18 00:47:31;;;;;;;14.85;3.80;;;;;;;5.75;67.93;102307.88;343989;28;1069;-65
2021/03/18 00:47:43;;;;;;;15.56;3.60;;;;;;;5.78;67.75;102308.75;345158;28;1119;-65
2021/03/18 00:47:55;;;;;;;15.75;3.60;;;;;;;5.77;68.31;102306.16;345019;28;1801;-64
2021/03/18 00:48:09;;;;;;;15.80;3.50;;;;;;;5.78;67.99;102307.88;345315;28;1116;-65
2021/03/18 00:48:22;;;;;;;15.95;3.60;;;;;;;5.77;68.27;102311.41;343952;28;1106;-65
2021/03/18 00:48:35;;;;;;;14.07;3.60;;;;;;;5.75;68.44;102307.88;343953;28;1113;-65
2021/03/18 00:48:47;;;;;;;17.58;3.72;;;;;;;5.77;68.70;102309.63;343783;28;1070;-65
2021/03/18 00:48:59;;;;;;;18.92;3.50;;;;;;;5.76;67.63;102307.88;343934;28;1086;-65
2021/03/18 00:49:10;;;;;;;18.35;3.55;;;;;;;5.76;68.38;102304.41;343993;28;1071;-65
2021/03/18 00:49:22;;;;;;;14.50;3.42;;;;;;;5.77;68.36;102311.41;343950;28;1147;-65
2021/03/18 00:49:33;;;;;;;14.73;3.72;;;;;;;5.79;68.02;102312.25;343906;28;1179;-65
2021/03/18 00:49:44;;;;;;;16.00;3.72;;;;;;;5.77;68.18;102307.00;343869;28;1177;-64
2021/03/18 00:49:55;;;;;;;18.95;3.80;;;;;;;5.76;68.74;102312.25;343906;28;2034;-64
2021/03/18 00:50:07;;;;;;;17.85;3.70;;;;;;;5.72;68.34;102307.91;343935;28;1180;-65
2021/03/18 00:50:23;;;;;;;18.23;3.80;;;;;;;5.72;67.96;102314.00;344024;28;1229;-65
2021/03/18 00:50:41;;;;;;;17.50;3.78;;;;;;;5.68;68.34;102308.78;343614;28;49382;-64
2021/03/18 00:50:57;;;;;;;18.17;3.85;;;;;;;5.61;67.87;102321.03;342910;28;72031;-65
2021/03/18 00:51:13;;;;;;;18.27;3.83;;;;;;;5.66;68.24;102313.13;342920;28;72320;-65
2021/03/18 00:51:25;;;;;;;14.88;3.50;;;;;;;5.62;68.18;102314.91;342885;28;71024;-64
2021/03/18 00:51:36;;;;;;;15.25;3.67;;;;;;;5.59;67.55;102315.78;345161;28;1011;-65
2021/03/18 00:51:48;;;;;;;19.27;3.90;;;;;;;5.53;68.19;102312.28;345201;28;1237;-64
2021/03/18 00:51:59;;;;;;;21.42;3.83;;;;;;;5.51;67.26;102320.16;345300;28;1102;-64
2021/03/18 00:52:11;;;;;;;21.45;3.80;;;;;;;5.53;67.89;102314.91;345304;28;1143;-65
2021/03/18 00:52:22;;;;;;;19.27;3.92;;;;;;;5.53;68.19;102318.38;345302;28;1098;-66
2021/03/18 00:52:33;;;;;;;19.00;4.03;;;;;;;5.58;68.57;102318.41;344116;28;1066;-65
2021/03/18 00:52:45;;;;;;;16.73;3.83;;;;;;;5.64;68.51;102321.00;343871;28;1059;-65
2021/03/18 00:52:57;;;;;;;16.08;3.67;;;;;;;5.66;68.17;102318.38;343963;28;1070;-65
2021/03/18 00:53:11;;;;;;;16.67;3.65;;;;;;;5.67;68.97;102320.13;343946;28;1042;-65
2021/03/18 00:53:30;;;;;;;16.58;3.50;;;;;;;5.67;67.48;102320.13;342379;28;48804;-65
2021/03/18 00:53:45;;;;;;;16.25;3.47;;;;;;;5.62;67.52;102320.16;341589;28;70705;-66
2021/03/18 00:53:56;;;;;;;14.65;3.28;;;;;;;5.58;67.74;102316.66;342420;28;48388;-64
2021/03/18 00:54:08;;;;;;;14.48;3.30;;;;;;;5.60;67.64;102312.28;343856;28;1152;-64
2021/03/18 00:54:19;;;;;;;17.73;3.50;;;;;;;5.61;67.67;102316.63;343962;28;1160;-65
2021/03/18 00:54:30;;;;;;;19.27;3.90;;;;;;;5.66;68.54;102315.75;343852;28;1165;-65
2021/03/18 00:54:41;;;;;;;20.15;3.95;;;;;;;5.68;68.61;102311.41;343858;28;1138;-65
2021/03/18 00:54:52;;;;;;;20.77;4.15;;;;;;;5.67;68.28;102317.50;343882;28;1054;-65
2021/03/18 00:55:04;;;;;;;18.90;4.03;;;;;;;5.64;68.66;102317.53;342556;28;1086;-65
2021/03/18 00:55:15;;;;;;;17.80;3.80;;;;;;;5.66;68.87;102314.03;342634;28;1043;-65
2021/03/18 00:55:27;;;;;;;17.42;3.70;;;;;;;5.68;68.56;102317.50;342553;28;1177;-65
2021/03/18 00:55:38;;;;;;;17.33;3.83;;;;;;;5.65;68.24;102317.53;342580;28;1113;-64
2021/03/18 00:55:51;;;;;;;18.42;3.97;;;;;;;5.68;67.62;102308.78;342548;28;1249;-65
2021/03/18 00:56:07;;;;;;;18.63;4.15;;;;;;;5.75;68.71;102318.38;342965;28;1460;-65
2021/03/18 00:56:20;;;;;;;17.65;4.15;;;;;;;5.75;67.78;102313.13;342236;28;48986;-65
2021/03/18 00:56:32;;;;;;;18.70;4.30;;;;;;;5.71;67.96;102309.63;343200;28;23736;-65
2021/03/18 00:56:43;;;;;;;18.08;4.05;;;;;;;5.63;67.90;102311.38;343756;28;1727;-65
2021/03/18 00:56:55;;;;;;;16.80;3.90;;;;;;;5.66;67.95;102311.41;343938;28;1042;-65
2021/03/18 00:57:06;;;;;;;17.20;3.85;;;;;;;5.65;68.53;102311.41;345280;28;1197;-65
2021/03/18 00:57:17;;;;;;;18.05;3.85;;;;;;;5.63;67.72;102302.66;345174;28;1142;-65
2021/03/18 00:57:28;;;;;;;17.60;3.70;;;;;;;5.62;68.22;102312.28;345334;28;1074;-65
2021/03/18 00:57:40;;;;;;;16.45;3.72;;;;;;;5.63;67.96;102302.66;345150;28;1209;-65
2021/03/18 00:57:51;;;;;;;16.33;3.67;;;;;;;5.60;68.32;102309.66;345140;28;1773;-64
2021/03/18 00:58:03;;;;;;;14.55;3.72;;;;;;;5.59;68.24;102313.16;344227;28;1224;-65
2021/03/18 00:58:15;;;;;;;16.30;3.83;;;;;;;5.58;68.39;102313.16;345233;28;1086;-65
2021/03/18 00:58:27;;;;;;;18.85;4.10;;;;;;;5.62;68.35;102307.03;345282;28;1209;-65
2021/03/18 00:58:46;;;;;;;21.33;4.03;;;;;;;5.65;67.71;102312.28;345307;28;1050;-64